Terminal Aerodrome Forecast
Issued by NWS

Home | Current Version | Previous Version | Text Only | Print | Product List | Glossary On
Versions: 1 2 3 4 5 6 7 8 9 10 11 12 13 14 15 16 17 18 19 20 21 22 23 24 25 26 27 28 29 30 31
000
FTUS46 KPDT 200541
TAFYKM
TAF
KYKM 200541Z 2006/2106 21005KT P6SM BKN150
     FM200900 26003KT 6SM BR SCT008 BKN100 OVC150
     FM201200 29003KT P6SM -SHRA BKN035 OVC050
     FM201600 32004KT 4SM -RA BR BKN025 OVC040
     FM202100 25005KT 5SM BR VCSH SCT025 OVC040
     FM210200 28009KT P6SM SCT040 BKN150=

USA.gov is the U.S. government's official web portal to all federal, state and local government web resources and services.